createdAt,value
2018-12-04T00:00:56.348Z,90.59
2018-12-04T00:03:24.972Z,90.66
2018-12-04T00:05:53.341Z,90.69
2018-12-04T00:08:21.765Z,90.70
2018-12-04T00:10:50.335Z,90.67
2018-12-04T00:13:18.819Z,90.69
2018-12-04T00:15:47.193Z,90.70
2018-12-04T00:18:15.597Z,90.47
2018-12-04T00:20:43.965Z,90.84
2018-12-04T00:23:12.380Z,90.52
2018-12-04T00:25:40.925Z,90.51
2018-12-04T00:28:09.294Z,90.78
2018-12-04T00:30:37.681Z,90.66
2018-12-04T00:33:06.086Z,90.74
2018-12-04T00:35:34.949Z,90.56
2018-12-04T00:38:03.409Z,90.51
2018-12-04T00:40:32.228Z,90.59
2018-12-04T00:43:00.633Z,90.50
2018-12-04T00:45:29.005Z,90.53
2018-12-04T00:47:57.516Z,90.72
2018-12-04T00:50:25.937Z,90.37
2018-12-04T00:52:54.317Z,90.72
2018-12-04T00:55:22.820Z,90.51
2018-12-04T00:57:51.208Z,90.49
2018-12-04T01:00:19.608Z,90.66
2018-12-04T01:02:48.052Z,90.39
2018-12-04T01:05:16.472Z,90.48
2018-12-04T01:07:44.870Z,90.50
2018-12-04T01:10:13.277Z,90.60
2018-12-04T01:12:42.025Z,90.62
2018-12-04T01:15:10.517Z,90.55
2018-12-04T01:17:38.951Z,90.47
2018-12-04T01:20:07.619Z,90.50
2018-12-04T01:22:35.980Z,90.68
2018-12-04T01:25:04.756Z,90.67
2018-12-04T01:27:33.448Z,90.67
2018-12-04T01:30:01.843Z,90.63
2018-12-04T01:32:30.233Z,90.45
2018-12-04T01:34:58.597Z,90.43
2018-12-04T01:37:26.984Z,90.23
2018-12-04T01:39:55.370Z,90.24
2018-12-04T01:42:23.743Z,90.32
2018-12-04T01:44:52.153Z,90.31
2018-12-04T01:47:20.612Z,90.28
2018-12-04T01:49:48.980Z,90.23
2018-12-04T01:52:17.351Z,90.23
2018-12-04T01:54:45.753Z,90.40
2018-12-04T01:57:14.256Z,90.35
2018-12-04T01:59:42.652Z,89.95
2018-12-04T02:02:11.076Z,90.08
2018-12-04T02:04:39.463Z,90.06
2018-12-04T02:07:07.824Z,90.21
2018-12-04T02:09:36.341Z,89.86
2018-12-04T02:12:04.726Z,89.94
2018-12-04T02:14:33.297Z,89.94
2018-12-04T02:17:01.729Z,89.90
2018-12-04T02:19:30.108Z,90.00
2018-12-04T02:22:04.884Z,89.84
2018-12-04T02:24:33.293Z,90.06
2018-12-04T02:27:01.710Z,89.91
2018-12-04T02:29:30.228Z,89.50
2018-12-04T02:31:58.625Z,89.69
2018-12-04T02:34:26.992Z,89.90
2018-12-04T02:36:55.393Z,89.78
2018-12-04T02:39:23.769Z,89.96
2018-12-04T02:41:52.140Z,90.08
2018-12-04T02:44:20.569Z,89.98
2018-12-04T02:46:48.930Z,89.83
2018-12-04T02:49:17.312Z,89.50
2018-12-04T02:51:45.709Z,89.79
2018-12-04T02:54:14.106Z,89.27
2018-12-04T02:56:42.528Z,89.40
2018-12-04T02:59:11.008Z,89.47
2018-12-04T03:01:39.388Z,89.25
2018-12-04T03:04:07.757Z,88.93
2018-12-04T03:06:36.189Z,89.06
2018-12-04T03:09:07.025Z,89.06
2018-12-04T03:11:35.399Z,89.06
2018-12-04T03:14:03.965Z,88.87
2018-12-04T03:16:32.678Z,88.53
2018-12-04T03:19:01.050Z,88.56
2018-12-04T03:21:29.593Z,88.32
2018-12-04T03:23:57.987Z,88.51
2018-12-04T03:26:26.391Z,88.25
2018-12-04T03:28:54.791Z,88.40
2018-12-04T03:31:23.402Z,88.60
2018-12-04T03:33:51.797Z,88.39
2018-12-04T03:36:20.248Z,88.36
2018-12-04T03:38:48.681Z,88.46
2018-12-04T03:41:17.073Z,88.34
2018-12-04T03:43:45.496Z,88.28
2018-12-04T03:46:13.947Z,88.27
2018-12-04T03:48:42.334Z,88.22
2018-12-04T03:51:10.908Z,87.84
2018-12-04T03:53:39.290Z,88.02
2018-12-04T03:56:07.665Z,87.71
2018-12-04T03:58:36.115Z,87.84
2018-12-04T04:01:04.509Z,88.04
2018-12-04T04:03:32.908Z,87.94
2018-12-04T04:06:01.362Z,87.94
2018-12-04T04:08:29.747Z,88.07
2018-12-04T04:10:58.486Z,88.23
2018-12-04T04:13:33.262Z,88.32
2018-12-04T04:16:01.650Z,88.03
2018-12-04T04:18:30.252Z,88.20
2018-12-04T04:20:58.821Z,88.12
2018-12-04T04:23:27.324Z,87.94
2018-12-04T04:25:55.722Z,87.92
2018-12-04T04:28:24.161Z,87.87
2018-12-04T04:30:52.554Z,87.77
2018-12-04T04:33:21.093Z,88.11
2018-12-04T04:35:49.544Z,88.03
2018-12-04T04:38:17.902Z,87.88
2018-12-04T04:40:46.269Z,87.97
2018-12-04T04:43:14.723Z,88.15
2018-12-04T04:45:43.205Z,87.95
2018-12-04T04:48:11.665Z,87.79
2018-12-04T04:50:40.164Z,88.03
2018-12-04T04:53:11.422Z,87.85
2018-12-04T04:55:39.864Z,87.73
2018-12-04T04:58:08.238Z,87.52
2018-12-04T05:00:36.635Z,87.46
2018-12-04T05:03:05.115Z,87.30
2018-12-04T05:05:39.550Z,87.23
2018-12-04T05:08:07.948Z,87.43
2018-12-04T05:10:36.386Z,87.56
2018-12-04T05:13:04.796Z,87.56
2018-12-04T05:15:33.216Z,87.34
2018-12-04T05:18:01.665Z,87.25
2018-12-04T05:20:30.721Z,87.25
2018-12-04T05:22:59.174Z,87.42
2018-12-04T05:25:27.647Z,87.09
2018-12-04T05:27:56.081Z,87.42
2018-12-04T05:30:24.541Z,87.07
2018-12-04T05:32:52.952Z,87.16
2018-12-04T05:35:21.471Z,86.83
2018-12-04T05:37:49.893Z,86.80
2018-12-04T05:40:18.280Z,86.49
2018-12-04T05:42:47.555Z,86.32
2018-12-04T05:45:15.969Z,86.62
2018-12-04T05:47:44.392Z,86.40
2018-12-04T05:50:12.765Z,86.29
2018-12-04T05:52:41.202Z,85.99
2018-12-04T05:55:09.569Z,85.85
2018-12-04T05:57:37.981Z,85.87
2018-12-04T06:00:09.274Z,85.66
2018-12-04T06:02:37.641Z,85.75
2018-12-04T06:05:06.264Z,85.51
2018-12-04T06:07:34.907Z,85.77
2018-12-04T06:10:03.432Z,85.43
2018-12-04T06:12:31.806Z,85.49
2018-12-04T06:15:00.224Z,85.46
2018-12-04T06:17:28.600Z,85.73
2018-12-04T06:19:56.956Z,85.77
2018-12-04T06:22:25.621Z,85.46
2018-12-04T06:24:54.097Z,85.38
2018-12-04T06:27:22.685Z,85.66
2018-12-04T06:29:52.576Z,85.53
2018-12-04T06:32:20.980Z,85.46
2018-12-04T06:34:49.355Z,85.53
2018-12-04T06:37:17.913Z,85.41
2018-12-04T06:39:46.277Z,85.43
2018-12-04T06:42:14.645Z,85.70
2018-12-04T06:44:46.731Z,85.57
2018-12-04T06:47:13.502Z,85.67
2018-12-04T06:49:41.881Z,85.79
2018-12-04T06:52:10.281Z,85.82
2018-12-04T06:54:38.665Z,85.60
2018-12-04T06:57:07.083Z,85.98
2018-12-04T06:59:35.597Z,86.14
2018-12-04T07:02:04.141Z,86.28
2018-12-04T07:04:32.518Z,86.37
2018-12-04T07:07:00.921Z,86.38
2018-12-04T07:09:29.301Z,86.51
2018-12-04T07:12:02.416Z,86.78
2018-12-04T07:14:28.069Z,86.70
2018-12-04T07:16:56.433Z,86.71
2018-12-04T07:19:24.812Z,86.86
2018-12-04T07:21:53.252Z,86.67
2018-12-04T07:24:22.077Z,86.58
2018-12-04T07:26:51.140Z,86.69
2018-12-04T07:29:19.590Z,86.38
2018-12-04T07:31:48.145Z,86.53
2018-12-04T07:34:16.576Z,86.47
2018-12-04T07:36:44.973Z,86.39
2018-12-04T07:39:13.640Z,86.48
2018-12-04T07:41:42.115Z,86.58
2018-12-04T07:44:10.601Z,86.67
2018-12-04T07:46:38.965Z,86.40
2018-12-04T07:49:07.357Z,86.35
2018-12-04T07:51:35.754Z,86.73
2018-12-04T07:54:04.144Z,86.68
2018-12-04T07:56:32.533Z,86.61
2018-12-04T07:59:00.975Z,86.87
2018-12-04T08:01:29.376Z,86.57
2018-12-04T08:03:57.809Z,86.73
2018-12-04T08:06:26.200Z,86.85
2018-12-04T08:08:54.840Z,86.79
2018-12-04T08:11:23.213Z,86.71
2018-12-04T08:13:51.657Z,86.71
2018-12-04T08:16:20.064Z,86.77
2018-12-04T08:18:48.444Z,86.47
2018-12-04T08:21:16.888Z,86.60
2018-12-04T08:23:45.249Z,86.81
2018-12-04T08:26:13.765Z,86.64
2018-12-04T08:28:42.174Z,86.80
2018-12-04T08:31:10.557Z,86.78
2018-12-04T08:33:38.926Z,86.76
2018-12-04T08:36:07.345Z,86.54
2018-12-04T08:38:35.721Z,86.60
2018-12-04T08:41:04.721Z,86.86
2018-12-04T08:43:33.170Z,86.73
2018-12-04T08:46:01.643Z,86.55
2018-12-04T08:48:30.039Z,86.57
2018-12-04T08:50:58.456Z,86.43
2018-12-04T08:53:26.836Z,86.61
2018-12-04T08:55:55.225Z,86.71
2018-12-04T08:58:23.645Z,86.66
2018-12-04T09:00:52.165Z,86.72
2018-12-04T09:03:20.596Z,86.57
2018-12-04T09:05:49.340Z,86.61
2018-12-04T09:08:17.704Z,86.77
2018-12-04T09:10:46.076Z,86.63
2018-12-04T09:13:14.529Z,86.68
2018-12-04T09:15:42.924Z,86.59
2018-12-04T09:18:11.429Z,86.71
2018-12-04T09:20:39.913Z,86.83
2018-12-04T09:23:08.440Z,86.77
2018-12-04T09:25:36.885Z,86.62
2018-12-04T09:28:05.644Z,86.52
2018-12-04T09:30:34.045Z,86.48
2018-12-04T09:33:02.421Z,86.34
2018-12-04T09:35:30.841Z,86.50
2018-12-04T09:37:59.231Z,86.24
2018-12-04T09:40:27.741Z,86.29
2018-12-04T09:42:56.289Z,86.49
2018-12-04T09:45:25.278Z,86.20
2018-12-04T09:47:53.688Z,86.01
2018-12-04T09:50:22.084Z,85.93
2018-12-04T09:52:50.452Z,85.90
2018-12-04T09:55:18.817Z,85.76
2018-12-04T09:57:47.368Z,85.62
2018-12-04T10:00:15.880Z,85.46
2018-12-04T10:02:44.253Z,85.47
2018-12-04T10:05:12.675Z,85.46
2018-12-04T10:07:41.117Z,85.04
2018-12-04T10:10:09.766Z,84.86
2018-12-04T10:12:38.197Z,84.99
2018-12-04T10:15:07.439Z,84.88
2018-12-04T10:17:35.843Z,84.53
2018-12-04T10:20:06.161Z,84.74
2018-12-04T10:22:34.541Z,84.78
2018-12-04T10:25:02.921Z,84.29
2018-12-04T10:27:31.353Z,84.11
2018-12-04T10:30:00.384Z,84.42
2018-12-04T10:32:28.818Z,84.23
2018-12-04T10:34:57.397Z,83.99
2018-12-04T10:37:25.765Z,84.29
2018-12-04T10:39:54.145Z,83.78
2018-12-04T10:42:22.537Z,83.81
2018-12-04T10:44:51.149Z,83.44
2018-12-04T10:47:19.968Z,83.52
2018-12-04T10:49:48.429Z,83.72
2018-12-04T10:52:16.976Z,83.69
2018-12-04T10:54:45.359Z,83.76
2018-12-04T10:57:13.778Z,83.96
2018-12-04T10:59:42.161Z,84.04
2018-12-04T11:02:15.681Z,84.45
2018-12-04T11:04:44.479Z,84.42
2018-12-04T11:07:12.875Z,84.18
2018-12-04T11:09:41.308Z,84.25
2018-12-04T11:12:12.282Z,84.01
2018-12-04T11:14:40.093Z,84.69
2018-12-04T11:17:08.807Z,84.37
2018-12-04T11:19:37.169Z,84.30
2018-12-04T11:22:05.668Z,84.24
2018-12-04T11:24:34.278Z,84.26
2018-12-04T11:27:02.713Z,84.25
2018-12-04T11:29:31.564Z,84.14
2018-12-04T11:32:00.165Z,84.61
2018-12-04T11:34:28.629Z,84.87
2018-12-04T11:36:59.045Z,85.06
2018-12-04T11:39:27.501Z,85.16
2018-12-04T11:41:55.938Z,85.39
2018-12-04T11:44:24.321Z,85.38
2018-12-04T11:46:53.020Z,85.64
2018-12-04T11:49:21.389Z,85.88
2018-12-04T11:51:49.823Z,85.88
2018-12-04T11:54:18.223Z,85.96
2018-12-04T11:56:46.588Z,86.58
2018-12-04T11:59:15.268Z,86.30
2018-12-04T12:01:43.666Z,86.46
2018-12-04T12:04:12.043Z,86.63
2018-12-04T12:06:40.607Z,86.79
2018-12-04T12:09:10.577Z,86.97
2018-12-04T12:11:38.950Z,86.54
2018-12-04T12:14:07.342Z,86.39
2018-12-04T12:16:35.745Z,86.31
2018-12-04T12:19:04.127Z,86.10
2018-12-04T12:21:32.690Z,86.47
2018-12-04T12:24:01.117Z,86.22
2018-12-04T12:26:29.553Z,85.90
2018-12-04T12:28:58.188Z,85.72
2018-12-04T12:31:26.685Z,85.34
2018-12-04T12:33:55.204Z,85.22
2018-12-04T12:36:23.582Z,85.42
2018-12-04T12:38:52.353Z,84.91
2018-12-04T12:41:20.744Z,84.55
2018-12-04T12:43:49.424Z,83.58
2018-12-04T12:46:17.805Z,83.95
2018-12-04T12:48:46.348Z,82.60
2018-12-04T12:51:14.733Z,82.39
2018-12-04T12:53:43.160Z,81.97
2018-12-04T12:56:11.909Z,82.37
2018-12-04T12:58:40.281Z,82.31
2018-12-04T13:01:08.887Z,82.99
2018-12-04T13:03:37.278Z,82.83
2018-12-04T13:06:05.692Z,82.53
2018-12-04T13:08:34.236Z,82.79
2018-12-04T13:11:02.613Z,82.79
2018-12-04T13:13:36.755Z,83.06
2018-12-04T13:16:01.497Z,83.02
2018-12-04T13:18:29.883Z,83.14
2018-12-04T13:20:58.260Z,82.82
2018-12-04T13:23:26.707Z,82.86
2018-12-04T13:25:55.160Z,82.90
2018-12-04T13:28:23.617Z,82.75
2018-12-04T13:30:52.063Z,83.10
2018-12-04T13:33:20.662Z,82.80
2018-12-04T13:35:49.043Z,82.84
2018-12-04T13:38:17.549Z,83.29
2018-12-04T13:40:46.082Z,83.24
2018-12-04T13:43:14.531Z,83.37
2018-12-04T13:45:43.506Z,83.51
2018-12-04T13:48:11.913Z,83.63
2018-12-04T13:50:40.623Z,83.76
2018-12-04T13:53:09.036Z,83.79
2018-12-04T13:55:37.413Z,83.95
2018-12-04T13:58:05.990Z,83.65
2018-12-04T14:00:34.421Z,83.89
2018-12-04T14:03:02.884Z,83.82
2018-12-04T14:05:31.238Z,83.97
2018-12-04T14:07:59.653Z,83.61
2018-12-04T14:10:28.349Z,83.81
2018-12-04T14:12:56.749Z,83.73
2018-12-04T14:15:25.597Z,83.84
2018-12-04T14:17:53.957Z,83.92
2018-12-04T14:20:22.504Z,83.86
2018-12-04T14:22:51.067Z,83.91
2018-12-04T14:25:19.441Z,84.00
2018-12-04T14:27:49.193Z,84.24
2018-12-04T14:30:17.985Z,84.12
2018-12-04T14:32:46.664Z,84.17
2018-12-04T14:35:15.056Z,84.29
2018-12-04T14:37:43.495Z,84.29
2018-12-04T14:40:11.879Z,84.10
2018-12-04T14:42:40.662Z,84.05
2018-12-04T14:45:09.237Z,83.96
2018-12-04T14:47:39.014Z,83.88
2018-12-04T14:50:09.278Z,84.13
2018-12-04T14:52:37.847Z,84.20
2018-12-04T14:55:07.391Z,83.61
2018-12-04T14:57:35.833Z,83.78
2018-12-04T15:00:06.367Z,84.22
2018-12-04T15:02:35.253Z,84.30
2018-12-04T15:05:03.901Z,84.47
2018-12-04T15:07:32.389Z,84.83
2018-12-04T15:10:00.948Z,84.61
2018-12-04T15:12:29.366Z,84.96
2018-12-04T15:14:57.730Z,84.85
2018-12-04T15:17:26.169Z,84.93
2018-12-04T15:19:54.812Z,84.90
2018-12-04T15:22:23.306Z,85.00
2018-12-04T15:24:51.961Z,84.84
2018-12-04T15:27:20.486Z,85.22
2018-12-04T15:29:48.888Z,85.31
2018-12-04T15:32:17.262Z,85.18
2018-12-04T15:34:45.715Z,85.78
2018-12-04T15:37:14.385Z,85.73
2018-12-04T15:39:42.988Z,86.25
2018-12-04T15:42:11.750Z,86.30
2018-12-04T15:44:40.592Z,86.69
2018-12-04T15:47:09.117Z,87.05
2018-12-04T15:49:37.651Z,87.36
2018-12-04T15:52:06.140Z,87.61
2018-12-04T15:54:34.774Z,87.65
2018-12-04T15:57:03.256Z,87.77
2018-12-04T15:59:31.647Z,88.00
2018-12-04T16:02:00.033Z,87.90
2018-12-04T16:04:28.461Z,88.47
2018-12-04T16:06:56.827Z,88.10
2018-12-04T16:09:25.221Z,88.23
2018-12-04T16:11:53.662Z,88.32
2018-12-04T16:14:22.057Z,88.26
2018-12-04T16:16:50.506Z,88.31
2018-12-04T16:19:19.071Z,88.74
2018-12-04T16:21:47.450Z,88.86
2018-12-04T16:24:15.832Z,88.99
2018-12-04T16:26:44.346Z,88.92
2018-12-04T16:29:12.852Z,88.75
2018-12-04T16:31:41.239Z,88.83
2018-12-04T16:34:09.731Z,88.93
2018-12-04T16:36:38.133Z,89.19
2018-12-04T16:39:08.621Z,89.01
2018-12-04T16:41:37.043Z,89.16
2018-12-04T16:44:05.592Z,89.42
2018-12-04T16:46:34.687Z,89.27
2018-12-04T16:49:09.335Z,89.39
2018-12-04T16:51:37.713Z,89.13
2018-12-04T16:54:06.074Z,89.15
2018-12-04T16:56:34.680Z,89.12
2018-12-04T16:59:03.080Z,89.38
2018-12-04T17:01:31.648Z,89.43
2018-12-04T17:04:00.081Z,89.09
2018-12-04T17:06:28.495Z,88.91
2018-12-04T17:08:56.886Z,89.14
2018-12-04T17:11:25.285Z,89.14
2018-12-04T17:13:53.634Z,89.13
2018-12-04T17:16:22.017Z,89.06
2018-12-04T17:18:50.568Z,88.89
2018-12-04T17:21:18.934Z,89.02
2018-12-04T17:23:47.415Z,88.92
2018-12-04T17:26:15.949Z,89.09
2018-12-04T17:28:44.341Z,89.13
2018-12-04T17:31:13.029Z,89.05
2018-12-04T17:33:41.457Z,89.05
2018-12-04T17:36:09.836Z,88.93
2018-12-04T17:38:38.221Z,89.41
2018-12-04T17:41:06.613Z,88.70
2018-12-04T17:43:35.317Z,88.69
2018-12-04T17:46:03.695Z,88.89
2018-12-04T17:48:32.301Z,88.97
2018-12-04T17:51:00.701Z,88.72
2018-12-04T17:53:29.220Z,88.65
2018-12-04T17:55:57.625Z,88.79
2018-12-04T17:58:26.174Z,88.80
2018-12-04T18:00:54.584Z,88.67
2018-12-04T18:03:29.381Z,88.72
2018-12-04T18:05:57.948Z,89.03
2018-12-04T18:08:27.417Z,88.75
2018-12-04T18:10:55.813Z,88.89
2018-12-04T18:13:24.298Z,89.33
2018-12-04T18:15:52.669Z,89.31
2018-12-04T18:18:21.113Z,89.51
2018-12-04T18:20:49.543Z,89.33
2018-12-04T18:23:17.965Z,89.46
2018-12-04T18:25:46.428Z,89.43
2018-12-04T18:28:14.856Z,89.57
2018-12-04T18:30:43.230Z,89.42
2018-12-04T18:33:11.653Z,89.70
2018-12-04T18:35:40.028Z,89.26
2018-12-04T18:38:08.434Z,89.42
2018-12-04T18:40:36.889Z,89.21
2018-12-04T18:43:05.307Z,89.06
2018-12-04T18:45:34.041Z,89.52
2018-12-04T18:48:02.607Z,89.05
2018-12-04T18:50:31.097Z,89.05
2018-12-04T18:52:59.496Z,88.98
2018-12-04T18:55:28.018Z,88.43
2018-12-04T18:57:56.394Z,88.72
2018-12-04T19:00:24.926Z,88.61
2018-12-04T19:02:54.472Z,89.03
2018-12-04T19:05:22.861Z,89.26
2018-12-04T19:07:51.291Z,89.34
2018-12-04T19:10:20.081Z,89.36
2018-12-04T19:12:48.452Z,90.17
2018-12-04T19:15:17.047Z,90.04
2018-12-04T19:17:45.516Z,90.08
2018-12-04T19:20:20.354Z,90.30
2018-12-04T19:22:48.823Z,89.81
2018-12-04T19:25:17.350Z,89.56
2018-12-04T19:27:45.732Z,89.34
2018-12-04T19:30:15.500Z,89.69
2018-12-04T19:32:43.880Z,89.71
2018-12-04T19:35:13.542Z,89.53
2018-12-04T19:37:41.981Z,89.48
2018-12-04T19:40:11.883Z,89.39
2018-12-04T19:42:44.013Z,89.21
2018-12-04T19:45:13.140Z,88.90
2018-12-04T19:47:41.636Z,89.37
2018-12-04T19:50:10.733Z,89.19
2018-12-04T19:52:39.301Z,88.92
2018-12-04T19:55:08.091Z,89.07
2018-12-04T19:57:36.599Z,89.11
2018-12-04T20:00:06.818Z,88.45
2018-12-04T20:02:35.498Z,88.52
2018-12-04T20:05:04.065Z,88.62
2018-12-04T20:07:32.461Z,88.23
2018-12-04T20:10:00.879Z,87.91
2018-12-04T20:12:29.313Z,88.18
2018-12-04T20:14:57.685Z,87.98
2018-12-04T20:17:26.069Z,88.01
2018-12-04T20:19:54.507Z,88.17
2018-12-04T20:22:22.912Z,87.84
2018-12-04T20:24:51.401Z,88.04
2018-12-04T20:27:20.153Z,87.92
2018-12-04T20:29:48.700Z,88.11
2018-12-04T20:32:17.112Z,87.69
2018-12-04T20:34:45.540Z,88.01
2018-12-04T20:37:13.940Z,88.09
2018-12-04T20:39:42.331Z,87.64
2018-12-04T20:42:10.767Z,87.21
2018-12-04T20:44:39.278Z,87.47
2018-12-04T20:47:07.638Z,87.28
2018-12-04T20:49:36.301Z,87.17
2018-12-04T20:52:04.793Z,87.05
2018-12-04T20:54:33.616Z,87.15
2018-12-04T20:57:02.230Z,86.82
2018-12-04T20:59:30.694Z,86.82
2018-12-04T21:01:59.088Z,86.76
2018-12-04T21:04:27.640Z,86.84
2018-12-04T21:06:56.016Z,86.52
2018-12-04T21:09:24.525Z,86.59
2018-12-04T21:11:52.938Z,86.35
2018-12-04T21:14:21.448Z,86.58
2018-12-04T21:16:49.992Z,86.35
2018-12-04T21:19:18.434Z,86.42
2018-12-04T21:21:46.940Z,86.41
2018-12-04T21:24:15.493Z,85.98
2018-12-04T21:26:43.941Z,85.83
2018-12-04T21:29:17.981Z,85.81
2018-12-04T21:31:51.762Z,86.01
2018-12-04T21:34:25.739Z,85.46
2018-12-04T21:36:59.396Z,85.58
2018-12-04T21:39:32.855Z,85.39
2018-12-04T21:42:05.429Z,85.18
2018-12-04T21:44:39.053Z,84.91
2018-12-04T21:47:12.605Z,85.17
2018-12-04T21:49:40.969Z,84.54
2018-12-04T21:52:09.338Z,83.82
2018-12-04T21:54:37.806Z,83.79
2018-12-04T21:57:06.318Z,83.73
2018-12-04T21:59:34.704Z,83.51
2018-12-04T22:02:03.146Z,83.64
2018-12-04T22:04:31.784Z,82.81
2018-12-04T22:07:00.159Z,82.21
2018-12-04T22:09:28.585Z,82.30
2018-12-04T22:11:56.970Z,81.76
2018-12-04T22:14:25.524Z,81.79
2018-12-04T22:16:53.971Z,81.57
2018-12-04T22:19:22.379Z,81.06
2018-12-04T22:21:51.208Z,81.16
2018-12-04T22:24:19.626Z,81.01
2018-12-04T22:26:48.017Z,80.79
2018-12-04T22:29:16.421Z,80.32
2018-12-04T22:31:44.976Z,79.71
2018-12-04T22:34:13.373Z,79.72
2018-12-04T22:36:41.758Z,79.52
2018-12-04T22:39:10.748Z,79.46
2018-12-04T22:41:39.152Z,79.23
2018-12-04T22:44:07.739Z,79.36
2018-12-04T22:46:36.152Z,79.54
2018-12-04T22:49:05.032Z,78.61
2018-12-04T22:51:33.439Z,78.99
2018-12-04T22:54:01.845Z,79.38
2018-12-04T22:56:30.243Z,79.22
2018-12-04T22:58:58.616Z,78.79
2018-12-04T23:01:43.893Z,78.72
2018-12-04T23:04:12.289Z,78.73
2018-12-04T23:06:41.013Z,79.04
2018-12-04T23:09:11.013Z,79.00
2018-12-04T23:11:40.066Z,79.07
2018-12-04T23:14:08.630Z,79.55
2018-12-04T23:16:37.078Z,78.66
2018-12-04T23:19:05.614Z,79.17
2018-12-04T23:21:34.010Z,79.00
2018-12-04T23:24:02.467Z,78.80
2018-12-04T23:26:30.924Z,79.03
2018-12-04T23:28:59.304Z,78.70
2018-12-04T23:31:27.726Z,78.97
2018-12-04T23:33:56.499Z,79.20
2018-12-04T23:36:24.888Z,78.87
2018-12-04T23:38:53.305Z,79.29
2018-12-04T23:41:21.674Z,79.00
2018-12-04T23:43:50.492Z,78.38
2018-12-04T23:46:19.373Z,78.22
2018-12-04T23:48:47.990Z,78.13
2018-12-04T23:51:16.373Z,78.01
2018-12-04T23:53:44.800Z,77.84
2018-12-04T23:56:13.208Z,77.38
2018-12-04T23:58:41.744Z,77.59
